createdAt,value
2018-03-22T00:00:26.948Z,1007.44
2018-03-22T00:01:26.945Z,1007.38
2018-03-22T00:02:26.953Z,1007.35
2018-03-22T00:03:26.983Z,1007.36
2018-03-22T00:04:26.994Z,1007.34
2018-03-22T00:05:27.024Z,1007.34
2018-03-22T00:06:27.027Z,1007.38
2018-03-22T00:07:27.051Z,1007.36
2018-03-22T00:08:27.041Z,1007.35
2018-03-22T00:09:27.053Z,1007.38
2018-03-22T00:10:27.068Z,1007.35
2018-03-22T00:11:27.126Z,1007.34
2018-03-22T00:12:27.095Z,1007.30
2018-03-22T00:13:27.113Z,1007.23
2018-03-22T00:14:27.137Z,1007.22
2018-03-22T00:15:27.134Z,1007.23
2018-03-22T00:16:27.159Z,1007.24
2018-03-22T00:17:27.162Z,1007.21
2018-03-22T00:18:27.179Z,1007.19
2018-03-22T00:19:27.201Z,1007.17
2018-03-22T00:20:27.213Z,1007.15
2018-03-22T00:21:27.236Z,1007.15
2018-03-22T00:22:27.225Z,1007.15
2018-03-22T00:23:27.251Z,1007.10
2018-03-22T00:24:27.282Z,1007.12
2018-03-22T00:25:27.269Z,1007.10
2018-03-22T00:26:27.279Z,1007.13
2018-03-22T00:27:27.294Z,1007.09
2018-03-22T00:28:27.333Z,1007.14
2018-03-22T00:29:27.359Z,1007.13
2018-03-22T00:30:27.331Z,1007.12
2018-03-22T00:31:27.358Z,1007.10
2018-03-22T00:32:27.368Z,1007.12
2018-03-22T00:33:27.387Z,1007.06
2018-03-22T00:34:27.402Z,1007.10
2018-03-22T00:35:27.420Z,1007.07
2018-03-22T00:36:27.414Z,1007.05
2018-03-22T00:37:27.445Z,1007.08
2018-03-22T00:38:27.449Z,1007.04
2018-03-22T00:39:27.500Z,1006.99
2018-03-22T00:40:27.486Z,1007.02
2018-03-22T00:41:27.506Z,1007.01
2018-03-22T00:42:27.532Z,1006.98
2018-03-22T00:43:27.522Z,1006.92
2018-03-22T00:44:27.612Z,1006.95
2018-03-22T00:45:27.565Z,1006.88
2018-03-22T00:46:27.628Z,1006.89
2018-03-22T00:47:27.596Z,1006.84
2018-03-22T00:48:27.590Z,1006.86
2018-03-22T00:49:27.617Z,1006.82
2018-03-22T00:50:27.609Z,1006.79
2018-03-22T00:51:27.632Z,1006.77
2018-03-22T00:52:27.648Z,1006.68
2018-03-22T00:53:27.698Z,1006.70
2018-03-22T00:54:27.660Z,1006.66
2018-03-22T00:55:27.675Z,1006.63
2018-03-22T00:56:27.702Z,1006.59
2018-03-22T00:57:27.715Z,1006.53
2018-03-22T00:58:27.720Z,1006.48
2018-03-22T00:59:27.748Z,1006.44
2018-03-22T01:00:27.751Z,1006.44
2018-03-22T01:01:27.769Z,1006.44
2018-03-22T01:02:27.770Z,1006.42
2018-03-22T01:03:27.792Z,1006.45
2018-03-22T01:04:27.807Z,1006.36
2018-03-22T01:05:27.821Z,1006.34
2018-03-22T01:06:27.849Z,1006.30
2018-03-22T01:07:27.840Z,1006.23
2018-03-22T01:08:27.880Z,1006.24
2018-03-22T01:09:27.899Z,1006.20
2018-03-22T01:10:27.903Z,1006.22
2018-03-22T01:11:27.903Z,1006.21
2018-03-22T01:12:27.924Z,1006.17
2018-03-22T01:13:27.942Z,1006.14
2018-03-22T01:14:27.963Z,1006.11
2018-03-22T01:15:27.955Z,1006.07
2018-03-22T01:16:27.966Z,1006.06
2018-03-22T01:17:27.978Z,1006.05
2018-03-22T01:18:28.000Z,1006.01
2018-03-22T01:19:28.116Z,1005.98
2018-03-22T01:20:28.014Z,1005.97
2018-03-22T01:21:28.088Z,1005.93
2018-03-22T01:22:28.047Z,1005.97
2018-03-22T01:23:28.059Z,1005.92
2018-03-22T01:24:28.078Z,1005.90
2018-03-22T01:25:28.091Z,1005.96
2018-03-22T01:26:28.100Z,1005.94
2018-03-22T01:27:28.107Z,1005.90
2018-03-22T01:28:28.138Z,1005.80
2018-03-22T01:29:28.143Z,1005.78
2018-03-22T01:30:28.201Z,1005.73
2018-03-22T01:31:28.178Z,1005.75
2018-03-22T01:32:28.188Z,1005.76
2018-03-22T01:33:28.192Z,1005.77
2018-03-22T01:34:28.209Z,1005.77
2018-03-22T01:35:28.237Z,1005.79
2018-03-22T01:36:28.274Z,1005.85
2018-03-22T01:37:28.249Z,1005.78
2018-03-22T01:38:28.266Z,1005.77
2018-03-22T01:39:28.277Z,1005.79
2018-03-22T01:40:28.286Z,1005.78
2018-03-22T01:41:28.311Z,1005.71
2018-03-22T01:42:28.319Z,1005.67
2018-03-22T01:43:28.325Z,1005.66
2018-03-22T01:44:28.378Z,1005.64
2018-03-22T01:45:28.351Z,1005.62
2018-03-22T01:46:28.370Z,1005.59
2018-03-22T01:47:28.437Z,1005.58
2018-03-22T01:48:28.393Z,1005.56
2018-03-22T01:49:28.423Z,1005.54
2018-03-22T01:50:28.428Z,1005.54
2018-03-22T01:51:28.452Z,1005.50
2018-03-22T01:52:28.452Z,1005.44
2018-03-22T01:53:28.474Z,1005.49
2018-03-22T01:54:28.489Z,1005.41
2018-03-22T01:55:28.518Z,1005.35
2018-03-22T01:56:28.505Z,1005.34
2018-03-22T01:57:28.527Z,1005.26
2018-03-22T01:58:28.564Z,1005.30
2018-03-22T01:59:28.571Z,1005.28
2018-03-22T02:00:28.562Z,1005.26
2018-03-22T02:01:28.584Z,1005.24
2018-03-22T02:02:28.607Z,1005.17
2018-03-22T02:03:28.600Z,1005.20
2018-03-22T02:04:28.642Z,1005.19
2018-03-22T02:05:28.625Z,1005.20
2018-03-22T02:06:28.685Z,1005.16
2018-03-22T02:07:28.669Z,1005.16
2018-03-22T02:08:28.670Z,1005.13
2018-03-22T02:09:28.678Z,1005.10
2018-03-22T02:10:28.705Z,1005.09
2018-03-22T02:11:28.705Z,1005.05
2018-03-22T02:12:28.733Z,1005.01
2018-03-22T02:13:28.746Z,1005.01
2018-03-22T02:14:28.758Z,1004.97
2018-03-22T02:15:28.768Z,1004.93
2018-03-22T02:16:28.782Z,1004.90
2018-03-22T02:17:28.804Z,1004.91
2018-03-22T02:18:28.828Z,1004.93
2018-03-22T02:19:28.855Z,1004.91
2018-03-22T02:20:28.834Z,1004.88
2018-03-22T02:21:28.845Z,1004.89
2018-03-22T02:22:28.880Z,1004.90
2018-03-22T02:23:28.869Z,1004.84
2018-03-22T02:24:28.888Z,1004.78
2018-03-22T02:25:28.977Z,1004.80
2018-03-22T02:26:28.914Z,1004.77
2018-03-22T02:27:28.926Z,1004.78
2018-03-22T02:28:28.938Z,1004.75
2018-03-22T02:29:28.958Z,1004.76
2018-03-22T02:30:29.067Z,1004.74
2018-03-22T02:31:29.004Z,1004.69
2018-03-22T02:32:28.995Z,1004.67
2018-03-22T02:33:29.012Z,1004.68
2018-03-22T02:34:29.026Z,1004.70
2018-03-22T02:35:29.049Z,1004.66
2018-03-22T02:36:29.073Z,1004.65
2018-03-22T02:37:29.065Z,1004.67
2018-03-22T02:38:29.094Z,1004.63
2018-03-22T02:39:29.090Z,1004.61
2018-03-22T02:40:29.106Z,1004.59
2018-03-22T02:41:29.133Z,1004.61
2018-03-22T02:42:29.134Z,1004.58
2018-03-22T02:43:29.171Z,1004.60
2018-03-22T02:44:29.170Z,1004.60
2018-03-22T02:45:29.197Z,1004.51
2018-03-22T02:46:29.191Z,1004.58
2018-03-22T02:47:29.222Z,1004.54
2018-03-22T02:48:29.215Z,1004.53
2018-03-22T02:49:29.232Z,1004.47
2018-03-22T02:50:29.237Z,1004.44
2018-03-22T02:51:29.256Z,1004.42
2018-03-22T02:52:29.266Z,1004.36
2018-03-22T02:53:29.287Z,1004.31
2018-03-22T02:54:29.321Z,1004.28
2018-03-22T02:55:29.329Z,1004.21
2018-03-22T02:56:29.362Z,1004.27
2018-03-22T02:57:29.334Z,1004.25
2018-03-22T02:58:29.350Z,1004.21
2018-03-22T02:59:29.357Z,1004.17
2018-03-22T03:00:29.376Z,1004.19
2018-03-22T03:01:29.397Z,1004.12
2018-03-22T03:02:29.412Z,1004.19
2018-03-22T03:03:29.417Z,1004.12
2018-03-22T03:04:29.464Z,1004.12
2018-03-22T03:05:29.453Z,1004.08
2018-03-22T03:06:29.496Z,1004.05
2018-03-22T03:07:29.464Z,1004.03
2018-03-22T03:08:29.492Z,1004.00
2018-03-22T03:09:29.491Z,1003.98
2018-03-22T03:10:29.522Z,1003.95
2018-03-22T03:11:29.587Z,1003.86
2018-03-22T03:12:29.536Z,1003.84
2018-03-22T03:13:29.547Z,1003.88
2018-03-22T03:14:29.568Z,1003.87
2018-03-22T03:15:29.584Z,1003.91
2018-03-22T03:16:29.594Z,1003.88
2018-03-22T03:17:29.603Z,1003.89
2018-03-22T03:18:29.623Z,1003.84
2018-03-22T03:19:29.626Z,1003.81
2018-03-22T03:20:29.640Z,1003.81
2018-03-22T03:21:29.650Z,1003.76
2018-03-22T03:22:29.661Z,1003.79
2018-03-22T03:23:29.722Z,1003.76
2018-03-22T03:24:29.709Z,1003.77
2018-03-22T03:25:29.696Z,1003.74
2018-03-22T03:26:29.717Z,1003.72
2018-03-22T03:27:29.749Z,1003.68
2018-03-22T03:28:29.758Z,1003.67
2018-03-22T03:29:29.759Z,1003.63
2018-03-22T03:30:29.812Z,1003.57
2018-03-22T03:31:29.784Z,1003.54
2018-03-22T03:32:29.802Z,1003.54
2018-03-22T03:33:29.822Z,1003.52
2018-03-22T03:34:29.826Z,1003.47
2018-03-22T03:35:29.836Z,1003.52
2018-03-22T03:36:29.846Z,1003.49
2018-03-22T03:37:29.929Z,1003.44
2018-03-22T03:38:29.879Z,1003.42
2018-03-22T03:39:29.888Z,1003.40
2018-03-22T03:40:29.902Z,1003.36
2018-03-22T03:41:29.971Z,1003.35
2018-03-22T03:42:29.959Z,1003.32
2018-03-22T03:43:29.940Z,1003.27
2018-03-22T03:44:29.972Z,1003.27
2018-03-22T03:45:29.963Z,1003.27
2018-03-22T03:46:30.008Z,1003.23
2018-03-22T03:47:30.006Z,1003.26
2018-03-22T03:48:30.022Z,1003.21
2018-03-22T03:49:30.030Z,1003.17
2018-03-22T03:50:30.035Z,1003.15
2018-03-22T03:51:30.059Z,1003.13
2018-03-22T03:52:30.078Z,1003.12
2018-03-22T03:53:30.087Z,1003.09
2018-03-22T03:54:30.106Z,1003.08
2018-03-22T03:55:30.106Z,1003.12
2018-03-22T03:56:30.114Z,1003.14
2018-03-22T03:57:30.126Z,1003.09
2018-03-22T03:58:30.137Z,1003.15
2018-03-22T03:59:30.186Z,1003.08
2018-03-22T04:00:30.159Z,1003.14
2018-03-22T04:01:30.189Z,1003.13
2018-03-22T04:02:30.191Z,1003.13
2018-03-22T04:03:30.203Z,1003.13
2018-03-22T04:04:30.215Z,1003.11
2018-03-22T04:05:30.300Z,1003.09
2018-03-22T04:06:30.348Z,1003.08
2018-03-22T04:07:30.264Z,1003.06
2018-03-22T04:08:30.276Z,1003.01
2018-03-22T04:09:30.309Z,1002.97
2018-03-22T04:10:30.296Z,1002.95
2018-03-22T04:11:30.330Z,1002.90
2018-03-22T04:12:30.322Z,1002.90
2018-03-22T04:13:30.361Z,1002.91
2018-03-22T04:14:30.352Z,1002.84
2018-03-22T04:15:30.409Z,1002.88
2018-03-22T04:16:30.375Z,1002.85
2018-03-22T04:17:30.405Z,1002.83
2018-03-22T04:18:30.409Z,1002.81
2018-03-22T04:19:30.425Z,1002.77
2018-03-22T04:20:30.424Z,1002.75
2018-03-22T04:21:30.438Z,1002.74
2018-03-22T04:22:30.456Z,1002.75
2018-03-22T04:23:30.482Z,1002.75
2018-03-22T04:24:30.481Z,1002.72
2018-03-22T04:25:30.500Z,1002.69
2018-03-22T04:26:30.524Z,1002.68
2018-03-22T04:27:30.536Z,1002.65
2018-03-22T04:28:30.541Z,1002.62
2018-03-22T04:29:30.551Z,1002.60
2018-03-22T04:30:30.569Z,1002.59
2018-03-22T04:31:30.573Z,1002.58
2018-03-22T04:32:30.588Z,1002.56
2018-03-22T04:33:30.630Z,1002.55
2018-03-22T04:34:30.628Z,1002.52
2018-03-22T04:35:30.635Z,1002.52
2018-03-22T04:36:30.641Z,1002.43
2018-03-22T04:37:30.659Z,1002.41
2018-03-22T04:38:30.817Z,1002.38
2018-03-22T04:39:30.686Z,1002.38
2018-03-22T04:40:30.689Z,1002.37
2018-03-22T04:41:30.718Z,1002.29
2018-03-22T04:42:30.716Z,1002.33
2018-03-22T04:43:30.779Z,1002.36
2018-03-22T04:44:30.815Z,1002.37
2018-03-22T04:45:30.764Z,1002.35
2018-03-22T04:46:30.847Z,1002.30
2018-03-22T04:47:30.780Z,1002.28
2018-03-22T04:48:30.828Z,1002.29
2018-03-22T04:49:30.806Z,1002.24
2018-03-22T04:50:30.850Z,1002.21
2018-03-22T04:51:30.836Z,1002.22
2018-03-22T04:52:30.856Z,1002.20
2018-03-22T04:53:30.866Z,1002.22
2018-03-22T04:54:30.881Z,1002.19
2018-03-22T04:55:30.922Z,1002.20
2018-03-22T04:56:30.917Z,1002.13
2018-03-22T04:57:30.929Z,1002.12
2018-03-22T04:58:30.931Z,1002.12
2018-03-22T04:59:30.974Z,1002.07
2018-03-22T05:00:30.960Z,1002.02
2018-03-22T05:01:30.970Z,1002.01
2018-03-22T05:02:30.997Z,1001.94
2018-03-22T05:03:30.996Z,1001.92
2018-03-22T05:04:31.004Z,1001.88
2018-03-22T05:05:31.054Z,1001.83
2018-03-22T05:06:31.037Z,1001.80
2018-03-22T05:07:31.045Z,1001.75
2018-03-22T05:08:31.061Z,1001.73
2018-03-22T05:09:31.110Z,1001.75
2018-03-22T05:10:31.113Z,1001.76
2018-03-22T05:11:31.109Z,1001.72
2018-03-22T05:12:31.142Z,1001.74
2018-03-22T05:13:31.155Z,1001.70
2018-03-22T05:14:31.141Z,1001.66
2018-03-22T05:15:31.167Z,1001.67
2018-03-22T05:16:31.167Z,1001.64
2018-03-22T05:17:31.222Z,1001.65
2018-03-22T05:18:31.201Z,1001.62
2018-03-22T05:19:31.208Z,1001.64
2018-03-22T05:20:31.215Z,1001.63
2018-03-22T05:21:31.262Z,1001.60
2018-03-22T05:22:31.280Z,1001.60
2018-03-22T05:23:31.300Z,1001.54
2018-03-22T05:24:31.277Z,1001.60
2018-03-22T05:25:31.300Z,1001.57
2018-03-22T05:26:31.322Z,1001.54
2018-03-22T05:27:31.332Z,1001.53
2018-03-22T05:28:31.329Z,1001.55
2018-03-22T05:29:31.406Z,1001.49
2018-03-22T05:30:31.358Z,1001.51
2018-03-22T05:31:31.401Z,1001.46
2018-03-22T05:32:31.399Z,1001.48
2018-03-22T05:33:31.415Z,1001.39
2018-03-22T05:34:31.426Z,1001.39
2018-03-22T05:35:31.438Z,1001.37
2018-03-22T05:36:31.468Z,1001.32
2018-03-22T05:37:31.453Z,1001.31
2018-03-22T05:38:31.456Z,1001.32
2018-03-22T05:39:31.475Z,1001.30
2018-03-22T05:40:31.493Z,1001.25
2018-03-22T05:41:31.499Z,1001.26
2018-03-22T05:42:31.528Z,1001.26
2018-03-22T05:43:31.542Z,1001.28
2018-03-22T05:44:31.545Z,1001.25
2018-03-22T05:45:31.555Z,1001.22
2018-03-22T05:46:31.564Z,1001.17
2018-03-22T05:47:31.589Z,1001.20
2018-03-22T05:48:31.591Z,1001.16
2018-03-22T05:49:31.658Z,1001.12
2018-03-22T05:50:31.618Z,1001.09
2018-03-22T05:51:31.677Z,1001.07
2018-03-22T05:52:31.655Z,1001.08
2018-03-22T05:53:31.660Z,1001.06
2018-03-22T05:54:31.677Z,1001.05
2018-03-22T05:55:31.684Z,1001.00
2018-03-22T05:56:31.696Z,1001.05
2018-03-22T05:57:31.754Z,1000.97
2018-03-22T05:58:31.736Z,1000.95
2018-03-22T05:59:31.747Z,1000.98
2018-03-22T06:00:31.766Z,1000.95
2018-03-22T06:01:31.770Z,1000.94
2018-03-22T06:02:31.779Z,1000.87
2018-03-22T06:03:31.797Z,1000.89
2018-03-22T06:04:31.808Z,1000.83
2018-03-22T06:05:31.824Z,1000.81
2018-03-22T06:06:31.853Z,1000.75
2018-03-22T06:07:31.847Z,1000.77
2018-03-22T06:08:31.876Z,1000.77
2018-03-22T06:09:31.874Z,1000.74
2018-03-22T06:10:31.902Z,1000.75
2018-03-22T06:11:31.926Z,1000.73
2018-03-22T06:12:31.922Z,1000.72
2018-03-22T06:13:31.937Z,1000.67
2018-03-22T06:14:31.965Z,1000.68
2018-03-22T06:15:31.960Z,1000.64
2018-03-22T06:16:32.011Z,1000.63
2018-03-22T06:17:32.026Z,1000.60
2018-03-22T06:18:32.019Z,1000.59
2018-03-22T06:19:32.040Z,1000.60
2018-03-22T06:20:32.029Z,1000.59
2018-03-22T06:21:32.032Z,1000.59
2018-03-22T06:22:32.044Z,1000.61
2018-03-22T06:23:32.064Z,1000.55
2018-03-22T06:24:32.075Z,1000.58
2018-03-22T06:25:32.099Z,1000.63
2018-03-22T06:26:32.121Z,1000.60
2018-03-22T06:27:32.116Z,1000.59
2018-03-22T06:28:32.142Z,1000.59
2018-03-22T06:29:32.149Z,1000.56
2018-03-22T06:30:32.157Z,1000.54
2018-03-22T06:31:32.167Z,1000.61
2018-03-22T06:32:32.187Z,1000.56
2018-03-22T06:33:32.197Z,1000.53
2018-03-22T06:34:32.220Z,1000.55
2018-03-22T06:35:32.246Z,1000.57
2018-03-22T06:36:32.237Z,1000.50
2018-03-22T06:37:32.262Z,1000.52
2018-03-22T06:38:32.277Z,1000.49
2018-03-22T06:39:32.329Z,1000.48
2018-03-22T06:40:32.314Z,1000.47
2018-03-22T06:41:32.304Z,1000.45
2018-03-22T06:42:32.324Z,1000.45
2018-03-22T06:43:32.330Z,1000.43
2018-03-22T06:44:32.362Z,1000.43
2018-03-22T06:45:32.364Z,1000.47
2018-03-22T06:46:32.380Z,1000.41
2018-03-22T06:47:32.388Z,1000.44
2018-03-22T06:48:32.419Z,1000.41
2018-03-22T06:49:32.449Z,1000.40
2018-03-22T06:50:32.436Z,1000.42
2018-03-22T06:51:32.483Z,1000.37
2018-03-22T06:52:32.452Z,1000.34
2018-03-22T06:53:32.472Z,1000.37
2018-03-22T06:54:32.493Z,1000.35
2018-03-22T06:55:32.491Z,1000.32
2018-03-22T06:56:32.512Z,1000.31
2018-03-22T06:57:32.516Z,1000.33
2018-03-22T06:58:32.533Z,1000.28
2018-03-22T06:59:32.542Z,1000.27
2018-03-22T07:00:32.582Z,1000.25
2018-03-22T07:01:32.583Z,1000.24
2018-03-22T07:02:32.593Z,1000.26
2018-03-22T07:03:32.613Z,1000.25
2018-03-22T07:04:32.618Z,1000.25
2018-03-22T07:05:32.623Z,1000.26
2018-03-22T07:06:32.655Z,1000.31
2018-03-22T07:07:32.751Z,1000.30
2018-03-22T07:08:32.678Z,1000.34
2018-03-22T07:09:32.673Z,1000.31
2018-03-22T07:10:32.699Z,1000.32
2018-03-22T07:11:32.710Z,1000.25
2018-03-22T07:12:32.722Z,1000.31
2018-03-22T07:13:32.756Z,1000.25
2018-03-22T07:14:32.768Z,1000.28
2018-03-22T07:15:32.797Z,1000.27
2018-03-22T07:16:32.778Z,1000.26
2018-03-22T07:17:32.794Z,1000.20
2018-03-22T07:18:32.807Z,1000.23
2018-03-22T07:19:32.845Z,1000.19
2018-03-22T07:20:32.844Z,1000.23
2018-03-22T07:21:32.845Z,1000.22
2018-03-22T07:22:32.933Z,1000.22
2018-03-22T07:23:32.886Z,1000.24
2018-03-22T07:24:32.887Z,1000.24
2018-03-22T07:25:32.939Z,1000.20
2018-03-22T07:26:32.906Z,1000.19
2018-03-22T07:27:32.930Z,1000.19
2018-03-22T07:28:32.948Z,1000.25
2018-03-22T07:29:32.966Z,1000.22
2018-03-22T07:30:32.963Z,1000.18
2018-03-22T07:31:32.991Z,1000.21
2018-03-22T07:32:32.999Z,1000.20
2018-03-22T07:33:33.018Z,1000.19
2018-03-22T07:34:33.023Z,1000.18
2018-03-22T07:35:33.050Z,1000.18
2018-03-22T07:36:33.043Z,1000.25
2018-03-22T07:37:33.067Z,1000.18
2018-03-22T07:38:33.073Z,1000.21
2018-03-22T07:39:33.117Z,1000.19
2018-03-22T07:40:33.105Z,1000.20
2018-03-22T07:41:33.136Z,1000.17
2018-03-22T07:42:33.158Z,1000.13
2018-03-22T07:43:33.142Z,1000.12
2018-03-22T07:44:33.193Z,1000.00
2018-03-22T07:45:33.164Z,1000.04
2018-03-22T07:46:33.193Z,999.97
2018-03-22T07:47:33.214Z,999.99
2018-03-22T07:48:33.218Z,999.95
2018-03-22T07:49:33.278Z,999.89
2018-03-22T07:50:33.252Z,999.87
2018-03-22T07:51:33.256Z,999.87
2018-03-22T07:52:33.275Z,999.85
2018-03-22T07:53:33.297Z,999.84
2018-03-22T07:54:33.304Z,999.80
2018-03-22T07:55:33.312Z,999.78
2018-03-22T07:56:33.325Z,999.81
2018-03-22T07:57:33.331Z,999.75
2018-03-22T07:58:33.374Z,999.75
2018-03-22T07:59:33.375Z,999.74
2018-03-22T08:00:33.386Z,999.74
2018-03-22T08:01:33.424Z,999.78
2018-03-22T08:02:33.434Z,999.75
2018-03-22T08:03:33.456Z,999.72
2018-03-22T08:04:33.431Z,999.67
2018-03-22T08:05:33.465Z,999.74
2018-03-22T08:06:33.453Z,999.73
2018-03-22T08:07:33.492Z,999.70
2018-03-22T08:08:33.497Z,999.74
2018-03-22T08:09:33.506Z,999.71
2018-03-22T08:10:33.513Z,999.74
2018-03-22T08:11:33.547Z,999.67
2018-03-22T08:12:33.555Z,999.65
2018-03-22T08:13:33.577Z,999.63
2018-03-22T08:14:33.568Z,999.65
2018-03-22T08:15:33.593Z,999.65
2018-03-22T08:16:33.598Z,999.65
2018-03-22T08:17:33.631Z,999.59
2018-03-22T08:18:33.621Z,999.60
2018-03-22T08:19:33.637Z,999.60
2018-03-22T08:20:33.658Z,999.61
2018-03-22T08:21:33.672Z,999.62
2018-03-22T08:22:33.688Z,999.65
2018-03-22T08:23:33.703Z,999.72
2018-03-22T08:24:33.739Z,999.68
2018-03-22T08:25:33.719Z,999.62
2018-03-22T08:26:33.742Z,999.59
2018-03-22T08:27:33.772Z,999.59
2018-03-22T08:28:33.775Z,999.54
2018-03-22T08:29:33.773Z,999.49
2018-03-22T08:30:33.792Z,999.50
2018-03-22T08:31:33.872Z,999.51
2018-03-22T08:32:33.872Z,999.45
2018-03-22T08:33:33.855Z,999.38
2018-03-22T08:34:33.869Z,999.38
2018-03-22T08:35:33.859Z,999.35
2018-03-22T08:36:33.878Z,999.29
2018-03-22T08:37:33.899Z,999.33
2018-03-22T08:38:33.900Z,999.27
2018-03-22T08:39:33.925Z,999.31
2018-03-22T08:40:33.932Z,999.33
2018-03-22T08:41:33.936Z,999.25
2018-03-22T08:42:33.953Z,999.27
2018-03-22T08:43:33.968Z,999.24
2018-03-22T08:44:33.989Z,999.26
2018-03-22T08:45:34.002Z,999.24
2018-03-22T08:46:34.005Z,999.27
2018-03-22T08:47:34.024Z,999.23
2018-03-22T08:48:34.047Z,999.23
2018-03-22T08:49:34.049Z,999.17
2018-03-22T08:50:34.068Z,999.18
2018-03-22T08:51:34.087Z,999.15
2018-03-22T08:52:34.096Z,999.13
2018-03-22T08:53:34.117Z,999.13
2018-03-22T08:54:34.145Z,999.13
2018-03-22T08:55:34.137Z,999.10
2018-03-22T08:56:34.174Z,999.09
2018-03-22T08:57:34.168Z,999.06
2018-03-22T08:58:34.186Z,999.12
2018-03-22T08:59:34.214Z,999.08
2018-03-22T09:00:34.204Z,999.07
2018-03-22T09:01:34.229Z,999.03
2018-03-22T09:02:34.248Z,999.00
2018-03-22T09:03:34.324Z,999.03
2018-03-22T09:04:34.265Z,999.02
2018-03-22T09:05:34.284Z,998.97
2018-03-22T09:06:34.286Z,999.03
2018-03-22T09:07:34.308Z,999.03
2018-03-22T09:08:34.320Z,999.06
2018-03-22T09:09:34.350Z,999.04
2018-03-22T09:10:34.352Z,999.01
2018-03-22T09:11:34.364Z,999.06
2018-03-22T09:12:34.384Z,999.03
2018-03-22T09:13:34.387Z,999.00
2018-03-22T09:14:34.405Z,998.84
2018-03-22T09:15:34.417Z,998.96
2018-03-22T09:16:34.445Z,998.92
2018-03-22T09:17:34.450Z,998.93
2018-03-22T09:18:34.468Z,998.87
2018-03-22T09:19:34.475Z,998.85
2018-03-22T09:20:34.488Z,998.83
2018-03-22T09:21:34.496Z,998.81
2018-03-22T09:22:34.542Z,998.91
2018-03-22T09:23:34.522Z,998.89
2018-03-22T09:24:34.548Z,998.90
2018-03-22T09:25:34.573Z,998.93
2018-03-22T09:26:34.565Z,998.89
2018-03-22T09:27:34.578Z,998.86
2018-03-22T09:28:34.599Z,998.85
2018-03-22T09:29:34.606Z,998.86
2018-03-22T09:30:34.633Z,998.92
2018-03-22T09:31:34.638Z,998.81
2018-03-22T09:32:34.651Z,998.84
2018-03-22T09:33:34.665Z,998.91
2018-03-22T09:34:34.692Z,998.82
2018-03-22T09:35:34.731Z,998.82
2018-03-22T09:36:34.729Z,998.83
2018-03-22T09:37:34.730Z,998.80
2018-03-22T09:38:34.787Z,998.82
2018-03-22T09:39:34.748Z,998.81
2018-03-22T09:40:34.788Z,998.81
2018-03-22T09:41:34.784Z,998.85
2018-03-22T09:42:34.795Z,998.73
2018-03-22T09:43:34.804Z,998.74
2018-03-22T09:44:34.838Z,998.78
2018-03-22T09:45:34.856Z,998.76
2018-03-22T09:46:34.854Z,998.77
2018-03-22T09:47:34.859Z,998.74
2018-03-22T09:48:34.885Z,998.76
2018-03-22T09:49:34.902Z,998.80
2018-03-22T09:50:34.906Z,998.81
2018-03-22T09:51:34.933Z,998.82
2018-03-22T09:52:34.945Z,998.84
2018-03-22T09:53:34.984Z,998.74
2018-03-22T09:54:34.965Z,998.75
2018-03-22T09:55:34.999Z,998.79
2018-03-22T09:56:35.000Z,998.81
2018-03-22T09:57:35.008Z,998.87
2018-03-22T09:58:35.034Z,998.89
2018-03-22T09:59:35.048Z,998.88
2018-03-22T10:00:35.058Z,998.89
2018-03-22T10:01:35.074Z,998.88
2018-03-22T10:02:35.097Z,998.96
2018-03-22T10:03:35.096Z,998.94
2018-03-22T10:04:35.106Z,998.95
2018-03-22T10:05:35.128Z,998.95
2018-03-22T10:06:35.143Z,999.00
2018-03-22T10:07:35.171Z,998.94
2018-03-22T10:08:35.222Z,998.94
2018-03-22T10:09:35.185Z,998.96
2018-03-22T10:10:35.212Z,998.98
2018-03-22T10:11:35.210Z,998.98
2018-03-22T10:12:35.286Z,998.91
2018-03-22T10:13:35.234Z,998.84
2018-03-22T10:14:35.253Z,998.92
2018-03-22T10:15:35.285Z,998.93
2018-03-22T10:16:35.282Z,998.87
2018-03-22T10:17:35.297Z,998.95
2018-03-22T10:18:35.381Z,998.90
2018-03-22T10:19:35.326Z,998.90
2018-03-22T10:20:35.336Z,998.90
2018-03-22T10:21:35.349Z,998.93
2018-03-22T10:22:35.384Z,998.93
2018-03-22T10:23:35.399Z,998.96
2018-03-22T10:24:35.426Z,998.93
2018-03-22T10:25:35.411Z,998.94
2018-03-22T10:26:35.426Z,998.86
2018-03-22T10:27:35.441Z,998.88
2018-03-22T10:28:35.457Z,998.84
2018-03-22T10:29:35.463Z,998.84
2018-03-22T10:30:35.476Z,998.86
2018-03-22T10:31:35.512Z,998.82
2018-03-22T10:32:35.511Z,998.81
2018-03-22T10:33:35.518Z,998.78
2018-03-22T10:34:35.559Z,998.77
2018-03-22T10:35:35.558Z,998.75
2018-03-22T10:36:35.581Z,998.72
2018-03-22T10:37:35.586Z,998.70
2018-03-22T10:38:35.603Z,998.69
2018-03-22T10:39:35.611Z,998.65
2018-03-22T10:40:35.633Z,998.63
2018-03-22T10:41:35.657Z,998.62
2018-03-22T10:42:35.650Z,998.68
2018-03-22T10:43:35.727Z,998.66
2018-03-22T10:44:35.679Z,998.61
2018-03-22T10:45:35.721Z,998.59
2018-03-22T10:46:35.745Z,998.63
2018-03-22T10:47:35.730Z,998.61
2018-03-22T10:48:35.747Z,998.60
2018-03-22T10:49:35.766Z,998.59
2018-03-22T10:50:35.842Z,998.65
2018-03-22T10:51:35.798Z,998.62
2018-03-22T10:52:35.803Z,998.60
2018-03-22T10:53:35.804Z,998.57
2018-03-22T10:54:35.830Z,998.53
2018-03-22T10:55:35.902Z,998.54
2018-03-22T10:56:35.854Z,998.58
2018-03-22T10:57:35.868Z,998.59
2018-03-22T10:58:35.889Z,998.57
2018-03-22T10:59:35.892Z,998.58
2018-03-22T11:00:35.981Z,998.52
2018-03-22T11:01:35.931Z,998.54
2018-03-22T11:02:35.977Z,998.56
2018-03-22T11:03:35.963Z,998.53
2018-03-22T11:04:35.972Z,998.51
2018-03-22T11:05:35.988Z,998.47
2018-03-22T11:06:36.004Z,998.42
2018-03-22T11:07:36.019Z,998.43
2018-03-22T11:08:36.030Z,998.45
2018-03-22T11:09:36.037Z,998.52
2018-03-22T11:10:36.087Z,998.43
2018-03-22T11:11:36.072Z,998.52
2018-03-22T11:12:36.082Z,998.46
2018-03-22T11:13:36.100Z,998.51
2018-03-22T11:14:36.133Z,998.52
2018-03-22T11:15:36.129Z,998.50
2018-03-22T11:16:36.141Z,998.48
2018-03-22T11:17:36.164Z,998.48
2018-03-22T11:18:36.170Z,998.45
2018-03-22T11:19:36.212Z,998.41
2018-03-22T11:20:36.206Z,998.39
2018-03-22T11:21:36.247Z,998.42
2018-03-22T11:22:36.230Z,998.38
2018-03-22T11:23:36.249Z,998.38
2018-03-22T11:24:36.267Z,998.36
2018-03-22T11:25:36.269Z,998.35
2018-03-22T11:26:36.341Z,998.39
2018-03-22T11:27:36.300Z,998.42
2018-03-22T11:28:36.321Z,998.43
2018-03-22T11:29:36.349Z,998.37
2018-03-22T11:30:36.352Z,998.38
2018-03-22T11:31:36.361Z,998.36
2018-03-22T11:32:36.374Z,998.38
2018-03-22T11:33:36.420Z,998.36
2018-03-22T11:34:36.407Z,998.38
2018-03-22T11:35:36.416Z,998.35
2018-03-22T11:36:36.479Z,998.32
2018-03-22T11:37:36.457Z,998.35
2018-03-22T11:38:36.484Z,998.33
2018-03-22T11:39:36.482Z,998.38
2018-03-22T11:40:36.489Z,998.37
2018-03-22T11:41:36.506Z,998.37
2018-03-22T11:42:36.518Z,998.36
2018-03-22T11:43:36.534Z,998.34
2018-03-22T11:44:36.555Z,998.32
2018-03-22T11:45:36.580Z,998.28
2018-03-22T11:46:36.580Z,998.29
2018-03-22T11:47:36.589Z,998.31
2018-03-22T11:48:36.612Z,998.32
2018-03-22T11:49:36.620Z,998.28
2018-03-22T11:50:36.629Z,998.31
2018-03-22T11:51:36.659Z,998.28
2018-03-22T11:52:36.685Z,998.30
2018-03-22T11:53:36.679Z,998.26
2018-03-22T11:54:36.695Z,998.27
2018-03-22T11:55:36.708Z,998.26
2018-03-22T11:56:36.731Z,998.23
2018-03-22T11:57:36.745Z,998.26
2018-03-22T11:58:36.760Z,998.23
2018-03-22T11:59:36.764Z,998.23
2018-03-22T12:00:36.788Z,998.23
2018-03-22T12:01:36.804Z,998.24
2018-03-22T12:02:36.809Z,998.26
2018-03-22T12:03:36.830Z,998.22
2018-03-22T12:04:36.881Z,998.27
2018-03-22T12:05:36.870Z,998.21
2018-03-22T12:06:36.877Z,998.27
2018-03-22T12:07:36.883Z,998.25
2018-03-22T12:08:36.904Z,998.24
2018-03-22T12:09:36.921Z,998.26
2018-03-22T12:10:36.926Z,998.25
2018-03-22T12:11:37.024Z,998.24
2018-03-22T12:12:36.952Z,998.23
2018-03-22T12:13:36.966Z,998.24